createdAt,value
2023-03-10T00:00:40.157Z,76.94
2023-03-10T00:03:07.214Z,77.29
2023-03-10T00:05:34.199Z,77.24
2023-03-10T00:08:00.969Z,77.55
2023-03-10T00:10:27.629Z,77.71
2023-03-10T00:12:54.229Z,77.98
2023-03-10T00:15:20.895Z,78.22
2023-03-10T00:17:50.114Z,78.59
2023-03-10T00:20:16.955Z,78.17
2023-03-10T00:22:43.719Z,77.49
2023-03-10T00:25:11.260Z,77.21
2023-03-10T00:27:38.161Z,77.12
2023-03-10T00:30:05.728Z,76.43
2023-03-10T00:32:34.492Z,77.08
2023-03-10T00:35:01.239Z,77.33
2023-03-10T00:37:27.939Z,77.18
2023-03-10T00:39:55.704Z,77.22
2023-03-10T00:42:22.844Z,78.04
2023-03-10T00:44:49.570Z,78.16
2023-03-10T00:47:16.243Z,78.29
2023-03-10T00:49:42.884Z,78.07
2023-03-10T00:52:09.656Z,78.03
2023-03-10T00:54:39.984Z,78.36
2023-03-10T00:57:06.753Z,78.02
2023-03-10T00:59:47.753Z,77.94
2023-03-10T01:02:16.702Z,77.84
2023-03-10T01:04:43.533Z,78.13
2023-03-10T01:07:10.229Z,77.73
2023-03-10T01:09:36.957Z,77.91
2023-03-10T01:12:03.715Z,77.74
2023-03-10T01:14:31.917Z,78.05
2023-03-10T01:16:59.556Z,77.76
2023-03-10T01:19:26.482Z,78.58
2023-03-10T01:21:53.400Z,78.83
2023-03-10T01:24:20.310Z,80.59
2023-03-10T01:26:47.055Z,81.24
2023-03-10T01:29:13.858Z,80.91
2023-03-10T01:31:41.941Z,81.14
2023-03-10T01:34:09.018Z,81.15
2023-03-10T01:36:35.833Z,81.57
2023-03-10T01:39:02.491Z,81.71
2023-03-10T01:41:29.260Z,82.45
2023-03-10T01:43:56.761Z,82.02
2023-03-10T01:46:52.402Z,82.07
2023-03-10T01:49:34.690Z,82.36
2023-03-10T01:52:12.222Z,82.32
2023-03-10T01:54:49.790Z,82.18
2023-03-10T01:57:21.709Z,81.47
2023-03-10T01:59:49.648Z,81.37
2023-03-10T02:02:17.534Z,81.49
2023-03-10T02:04:48.546Z,81.32
2023-03-10T02:07:21.883Z,82.21
2023-03-10T02:09:50.606Z,82.22
2023-03-10T02:12:18.450Z,81.81
2023-03-10T02:14:47.453Z,81.58
2023-03-10T02:17:18.205Z,82.76
2023-03-10T02:20:05.601Z,81.97
2023-03-10T02:22:33.449Z,81.48
2023-03-10T02:25:30.602Z,82.12
2023-03-10T02:27:57.950Z,82.53
2023-03-10T02:30:35.227Z,82.43
2023-03-10T02:33:24.074Z,82.73
2023-03-10T02:35:51.056Z,82.71
2023-03-10T02:38:18.260Z,82.63
2023-03-10T02:40:51.957Z,82.66
2023-03-10T02:43:36.575Z,82.75
2023-03-10T02:46:07.072Z,82.23
2023-03-10T02:48:36.807Z,82.66
2023-03-10T02:51:07.228Z,82.75
2023-03-10T02:53:33.870Z,82.04
2023-03-10T02:56:00.946Z,81.98
2023-03-10T02:58:30.086Z,81.63
2023-03-10T03:00:57.691Z,81.62
2023-03-10T03:03:24.797Z,81.76
2023-03-10T03:05:52.406Z,82.77
2023-03-10T03:08:19.918Z,83.20
2023-03-10T03:10:46.625Z,83.04
2023-03-10T03:13:13.498Z,82.50
2023-03-10T03:15:40.399Z,82.64
2023-03-10T03:18:07.422Z,83.04
2023-03-10T03:20:35.919Z,83.40
2023-03-10T03:23:02.633Z,83.56
2023-03-10T03:25:30.552Z,83.34
2023-03-10T03:27:58.111Z,83.06
2023-03-10T03:30:27.059Z,83.21
2023-03-10T03:32:55.619Z,82.93
2023-03-10T03:35:28.974Z,83.75
2023-03-10T03:37:56.540Z,83.85
2023-03-10T03:40:24.685Z,83.80
2023-03-10T03:42:53.582Z,84.40
2023-03-10T03:45:23.411Z,84.14
2023-03-10T03:47:50.621Z,84.87
2023-03-10T03:50:18.706Z,84.73
2023-03-10T03:52:46.136Z,85.04
2023-03-10T03:55:14.943Z,84.82
2023-03-10T03:57:42.756Z,84.72
2023-03-10T04:00:14.412Z,84.71
2023-03-10T04:02:41.189Z,84.73
2023-03-10T04:05:08.324Z,84.31
2023-03-10T04:07:35.000Z,83.85
2023-03-10T04:10:01.815Z,83.63
2023-03-10T04:12:29.701Z,83.34
2023-03-10T04:14:56.350Z,83.24
2023-03-10T04:17:23.020Z,83.20
2023-03-10T04:20:04.635Z,84.12
2023-03-10T04:22:33.337Z,84.86
2023-03-10T04:25:00.144Z,84.76
2023-03-10T04:27:26.756Z,84.75
2023-03-10T04:29:53.398Z,84.94
2023-03-10T04:32:20.156Z,85.00
2023-03-10T04:34:46.830Z,84.65
2023-03-10T04:37:13.556Z,84.25
2023-03-10T04:39:40.246Z,83.93
2023-03-10T04:42:07.312Z,83.35
2023-03-10T04:44:34.521Z,83.07
2023-03-10T04:47:01.558Z,82.68
2023-03-10T04:49:28.336Z,83.03
2023-03-10T04:51:55.187Z,83.54
2023-03-10T04:54:21.937Z,83.24
2023-03-10T04:56:48.644Z,83.48
2023-03-10T04:59:15.257Z,82.89
2023-03-10T05:01:41.949Z,82.15
2023-03-10T05:04:09.954Z,82.73
2023-03-10T05:06:36.617Z,83.43
2023-03-10T05:09:04.867Z,84.00
2023-03-10T05:11:32.208Z,84.33
2023-03-10T05:13:58.838Z,84.68
2023-03-10T05:16:25.645Z,85.07
2023-03-10T05:18:52.296Z,85.16
2023-03-10T05:21:19.101Z,84.84
2023-03-10T05:23:45.811Z,85.18
2023-03-10T05:26:12.680Z,84.62
2023-03-10T05:28:39.734Z,85.04
2023-03-10T05:31:11.907Z,85.44
2023-03-10T05:33:38.562Z,85.50
2023-03-10T05:36:07.754Z,85.34
2023-03-10T05:38:35.139Z,85.71
2023-03-10T05:41:02.238Z,85.30
2023-03-10T05:43:28.847Z,85.60
2023-03-10T05:46:00.965Z,84.47
2023-03-10T05:48:27.985Z,84.41
2023-03-10T05:51:06.864Z,84.02
2023-03-10T05:53:34.653Z,84.02
2023-03-10T05:56:10.366Z,84.38
2023-03-10T05:58:37.634Z,84.17
2023-03-10T06:01:04.840Z,84.18
2023-03-10T06:03:31.815Z,83.93
2023-03-10T06:05:58.855Z,84.19
2023-03-10T06:08:27.975Z,83.38
2023-03-10T06:10:54.961Z,83.24
2023-03-10T06:13:21.864Z,83.24
2023-03-10T06:15:50.226Z,83.74
2023-03-10T06:18:17.751Z,83.56
2023-03-10T06:20:44.563Z,83.95
2023-03-10T06:23:11.347Z,84.86
2023-03-10T06:25:38.202Z,85.59
2023-03-10T06:28:04.900Z,84.38
2023-03-10T06:30:31.901Z,84.08
2023-03-10T06:33:00.102Z,83.46
2023-03-10T06:35:27.280Z,83.00
2023-03-10T06:37:53.963Z,82.97
2023-03-10T06:40:21.251Z,83.40
2023-03-10T06:42:47.973Z,83.92
2023-03-10T06:45:16.724Z,83.81
2023-03-10T06:47:44.558Z,82.86
2023-03-10T06:50:12.966Z,83.36
2023-03-10T06:52:39.677Z,83.72
2023-03-10T06:55:07.124Z,83.10
2023-03-10T06:57:34.368Z,82.51
2023-03-10T07:00:01.024Z,82.69
2023-03-10T07:02:27.696Z,82.80
2023-03-10T07:04:54.414Z,82.72
2023-03-10T07:07:21.124Z,82.68
2023-03-10T07:09:47.911Z,82.08
2023-03-10T07:12:14.545Z,82.83
2023-03-10T07:14:41.218Z,83.55
2023-03-10T07:17:08.032Z,84.15
2023-03-10T07:19:34.909Z,82.90
2023-03-10T07:22:01.570Z,82.73
2023-03-10T07:24:28.271Z,82.16
2023-03-10T07:26:55.008Z,81.61
2023-03-10T07:29:21.637Z,81.87
2023-03-10T07:31:48.275Z,81.81
2023-03-10T07:34:14.874Z,81.44
2023-03-10T07:36:41.502Z,81.07
2023-03-10T07:39:08.469Z,80.13
2023-03-10T07:41:35.041Z,79.32
2023-03-10T07:44:01.706Z,79.93
2023-03-10T07:46:28.538Z,79.29
2023-03-10T07:48:56.640Z,77.96
2023-03-10T07:51:23.248Z,78.15
2023-03-10T07:53:49.938Z,77.78
2023-03-10T07:56:16.599Z,77.91
2023-03-10T07:58:43.245Z,77.60
2023-03-10T08:01:15.790Z,77.26
2023-03-10T08:03:42.379Z,77.72
2023-03-10T08:06:09.040Z,76.12
2023-03-10T08:08:35.909Z,75.77
2023-03-10T08:11:05.416Z,76.57
2023-03-10T08:13:32.656Z,76.00
2023-03-10T08:16:01.332Z,75.57
2023-03-10T08:18:29.561Z,75.40
2023-03-10T08:20:56.776Z,73.26
2023-03-10T08:23:24.790Z,73.09
2023-03-10T08:25:51.725Z,72.89
2023-03-10T08:28:18.528Z,72.38
2023-03-10T08:31:01.224Z,72.43
2023-03-10T08:33:30.749Z,71.93
2023-03-10T08:36:06.005Z,71.81
2023-03-10T08:38:32.942Z,71.85
2023-03-10T08:41:09.030Z,70.56
2023-03-10T08:43:35.886Z,68.97
2023-03-10T08:46:02.652Z,69.04
2023-03-10T08:48:29.377Z,70.72
2023-03-10T08:50:57.748Z,69.97
2023-03-10T08:53:25.206Z,69.54
2023-03-10T08:55:52.038Z,68.85
2023-03-10T08:58:18.725Z,68.52
2023-03-10T09:00:45.430Z,68.38
2023-03-10T09:03:14.415Z,68.12
2023-03-10T09:05:42.139Z,67.70
2023-03-10T09:08:08.815Z,68.05
2023-03-10T09:10:36.663Z,67.96
2023-03-10T09:13:13.368Z,67.64
2023-03-10T09:15:41.562Z,67.34
2023-03-10T09:18:15.079Z,67.01
2023-03-10T09:20:42.853Z,66.94
2023-03-10T09:23:10.463Z,66.84
2023-03-10T09:25:40.145Z,67.85
2023-03-10T09:28:08.287Z,68.13
2023-03-10T09:30:37.380Z,66.62
2023-03-10T09:33:13.880Z,66.59
2023-03-10T09:35:41.856Z,66.77
2023-03-10T09:38:14.989Z,67.15
2023-03-10T09:41:02.348Z,67.64
2023-03-10T09:43:36.739Z,67.39
2023-03-10T09:46:39.932Z,67.74
2023-03-10T09:49:16.526Z,67.35
2023-03-10T09:51:48.836Z,67.25
2023-03-10T09:54:39.577Z,67.16
2023-03-10T09:57:15.673Z,67.20
2023-03-10T09:59:45.463Z,67.46
2023-03-10T10:02:26.191Z,66.84
2023-03-10T10:05:04.193Z,66.96
2023-03-10T10:07:42.744Z,66.48
2023-03-10T10:10:22.121Z,66.96
2023-03-10T10:12:52.435Z,66.80
2023-03-10T10:15:22.593Z,65.52
2023-03-10T10:18:31.432Z,66.85
2023-03-10T10:21:10.685Z,66.70
2023-03-10T10:23:51.782Z,67.02
2023-03-10T10:26:21.105Z,67.34
2023-03-10T10:28:54.166Z,67.08
2023-03-10T10:31:27.371Z,67.25
2023-03-10T10:34:00.213Z,67.04
2023-03-10T10:36:32.763Z,67.04
2023-03-10T10:38:59.861Z,66.39
2023-03-10T10:41:31.840Z,66.27
2023-03-10T10:44:14.461Z,65.99
2023-03-10T10:46:52.426Z,67.66
2023-03-10T10:49:23.622Z,68.05
2023-03-10T10:52:05.008Z,67.89
2023-03-10T10:54:44.205Z,66.34
2023-03-10T10:57:20.092Z,68.63
2023-03-10T10:59:47.608Z,69.80
2023-03-10T11:02:43.474Z,69.39
2023-03-10T11:05:17.134Z,68.91
2023-03-10T11:07:44.440Z,68.38
2023-03-10T11:10:19.350Z,68.28
2023-03-10T11:13:19.088Z,68.87
2023-03-10T11:16:06.824Z,68.60
2023-03-10T11:19:00.103Z,66.31
2023-03-10T11:21:30.145Z,65.57
2023-03-10T11:24:31.073Z,66.60
2023-03-10T11:27:39.675Z,66.95
2023-03-10T11:30:16.517Z,67.41
2023-03-10T11:33:21.648Z,68.51
2023-03-10T11:36:11.365Z,68.69
2023-03-10T11:38:42.519Z,69.15
2023-03-10T11:41:19.904Z,68.33
2023-03-10T11:44:15.772Z,67.59
2023-03-10T11:46:54.860Z,67.61
2023-03-10T11:49:27.332Z,68.10
2023-03-10T11:51:59.689Z,68.12
2023-03-10T11:54:48.252Z,66.70
2023-03-10T11:57:20.676Z,66.19
2023-03-10T11:59:55.614Z,66.30
2023-03-10T12:02:31.089Z,66.70
2023-03-10T12:05:03.124Z,67.19
2023-03-10T12:07:38.552Z,67.52
2023-03-10T12:10:17.271Z,67.63
2023-03-10T12:12:47.094Z,67.40
2023-03-10T12:15:40.265Z,67.07
2023-03-10T12:18:08.528Z,67.36
2023-03-10T12:20:35.887Z,66.44
2023-03-10T12:23:38.868Z,66.85
2023-03-10T12:26:05.390Z,66.27
2023-03-10T12:28:33.710Z,65.89
2023-03-10T12:31:12.521Z,65.49
2023-03-10T12:33:47.402Z,66.02
2023-03-10T12:36:36.889Z,67.07
2023-03-10T12:39:38.003Z,67.54
2023-03-10T12:42:26.341Z,65.98
2023-03-10T12:45:29.274Z,66.50
2023-03-10T12:48:12.266Z,66.69
2023-03-10T12:50:58.393Z,65.96
2023-03-10T12:53:49.411Z,66.94
2023-03-10T12:56:22.387Z,66.63
2023-03-10T12:59:02.917Z,65.79
2023-03-10T13:01:40.570Z,66.24
2023-03-10T13:04:16.883Z,64.99
2023-03-10T13:06:46.556Z,65.15
2023-03-10T13:09:42.438Z,64.05
2023-03-10T13:12:19.973Z,64.57
2023-03-10T13:14:54.082Z,64.20
2023-03-10T13:17:24.612Z,64.19
2023-03-10T13:20:05.697Z,63.01
2023-03-10T13:22:33.739Z,62.46
2023-03-10T13:25:09.584Z,64.00
2023-03-10T13:27:36.357Z,63.26
2023-03-10T13:30:14.673Z,63.09
2023-03-10T13:32:42.072Z,63.29
2023-03-10T13:35:36.440Z,63.76
2023-03-10T13:38:11.480Z,62.70
2023-03-10T13:40:42.186Z,63.27
2023-03-10T13:43:49.028Z,62.67
2023-03-10T13:46:33.170Z,62.80
2023-03-10T13:49:06.316Z,64.17
2023-03-10T13:51:35.482Z,63.12
2023-03-10T13:54:34.062Z,62.92
2023-03-10T13:57:32.996Z,63.91
2023-03-10T14:00:00.727Z,63.34
2023-03-10T14:02:33.222Z,63.45
2023-03-10T14:05:00.962Z,64.09
2023-03-10T14:07:33.059Z,64.61
2023-03-10T14:10:25.841Z,64.51
2023-03-10T14:12:54.587Z,66.97
2023-03-10T14:15:29.996Z,72.27
2023-03-10T14:18:34.853Z,71.79
2023-03-10T14:21:25.841Z,72.88
2023-03-10T14:23:56.866Z,71.60
2023-03-10T14:26:23.788Z,71.79
2023-03-10T14:28:50.502Z,72.28
2023-03-10T14:31:22.025Z,72.05
2023-03-10T14:33:48.986Z,71.27
2023-03-10T14:36:15.927Z,72.88
2023-03-10T14:38:45.320Z,73.24
2023-03-10T14:41:14.035Z,73.63
2023-03-10T14:43:41.342Z,73.91
2023-03-10T14:46:12.527Z,73.51
2023-03-10T14:48:41.839Z,72.74
2023-03-10T14:51:17.821Z,71.28
2023-03-10T14:53:49.262Z,71.59
2023-03-10T14:56:20.413Z,71.43
2023-03-10T14:58:52.519Z,71.14
2023-03-10T15:01:20.698Z,72.43
2023-03-10T15:03:49.276Z,71.35
2023-03-10T15:06:18.614Z,70.17
2023-03-10T15:08:45.205Z,70.36
2023-03-10T15:11:12.064Z,70.32
2023-03-10T15:13:39.225Z,69.74
2023-03-10T15:16:06.880Z,69.71
2023-03-10T15:18:33.593Z,70.81
2023-03-10T15:21:01.989Z,69.94
2023-03-10T15:23:29.304Z,70.00
2023-03-10T15:25:56.708Z,69.44
2023-03-10T15:28:23.625Z,68.86
2023-03-10T15:30:50.612Z,67.52
2023-03-10T15:33:17.360Z,67.69
2023-03-10T15:35:44.159Z,68.40
2023-03-10T15:38:13.967Z,68.01
2023-03-10T15:40:40.861Z,67.98
2023-03-10T15:43:08.737Z,68.72
2023-03-10T15:45:39.485Z,68.07
2023-03-10T15:48:06.455Z,67.10
2023-03-10T15:50:33.137Z,67.14
2023-03-10T15:53:00.009Z,67.05
2023-03-10T15:55:28.021Z,66.09
2023-03-10T15:57:56.073Z,66.01
2023-03-10T16:00:24.427Z,67.37
2023-03-10T16:02:51.827Z,66.95
2023-03-10T16:05:19.044Z,65.57
2023-03-10T16:07:46.400Z,66.18
2023-03-10T16:10:15.894Z,66.85
2023-03-10T16:12:42.596Z,66.64
2023-03-10T16:15:10.000Z,66.58
2023-03-10T16:17:36.710Z,67.07
2023-03-10T16:20:08.958Z,65.97
2023-03-10T16:22:40.380Z,66.29
2023-03-10T16:25:10.250Z,65.88
2023-03-10T16:27:36.930Z,65.54
2023-03-10T16:30:04.833Z,65.12
2023-03-10T16:32:31.560Z,65.36
2023-03-10T16:34:59.979Z,65.73
2023-03-10T16:37:29.855Z,65.35
2023-03-10T16:39:57.209Z,65.61
2023-03-10T16:42:24.409Z,65.40
2023-03-10T16:44:51.097Z,66.17
2023-03-10T16:47:18.112Z,65.22
2023-03-10T16:49:44.857Z,64.10
2023-03-10T16:52:11.648Z,65.13
2023-03-10T16:54:38.398Z,64.22
2023-03-10T16:57:06.992Z,63.77
2023-03-10T16:59:33.988Z,61.99
2023-03-10T17:02:01.024Z,62.02
2023-03-10T17:04:28.153Z,61.78
2023-03-10T17:06:54.836Z,62.14
2023-03-10T17:09:21.676Z,62.82
2023-03-10T17:11:54.813Z,62.53
2023-03-10T17:14:23.636Z,63.10
2023-03-10T17:16:51.004Z,62.93
2023-03-10T17:19:20.945Z,65.74
2023-03-10T17:21:49.526Z,65.87
2023-03-10T17:24:19.415Z,65.94
2023-03-10T17:26:46.279Z,66.52
2023-03-10T17:29:13.700Z,67.57
2023-03-10T17:31:40.600Z,67.61
2023-03-10T17:34:12.101Z,68.08
2023-03-10T17:36:38.859Z,67.80
2023-03-10T17:39:06.427Z,66.92
2023-03-10T17:41:35.327Z,66.91
2023-03-10T17:44:04.692Z,66.72
2023-03-10T17:46:32.040Z,67.22
2023-03-10T17:48:58.700Z,66.56
2023-03-10T17:51:28.732Z,65.65
2023-03-10T17:54:01.660Z,67.30
2023-03-10T17:56:28.605Z,69.88
2023-03-10T17:58:57.147Z,70.83
2023-03-10T18:01:27.369Z,71.74
2023-03-10T18:03:59.001Z,72.12
2023-03-10T18:06:30.953Z,72.48
2023-03-10T18:09:04.595Z,74.33
2023-03-10T18:11:32.199Z,76.27
2023-03-10T18:13:59.707Z,77.16
2023-03-10T18:16:30.317Z,77.26
2023-03-10T18:18:58.799Z,78.81
2023-03-10T18:21:26.627Z,79.51
2023-03-10T18:23:53.572Z,80.39
2023-03-10T18:26:23.934Z,81.37
2023-03-10T18:28:51.031Z,82.49
2023-03-10T18:31:24.164Z,83.76
2023-03-10T18:33:51.344Z,84.51
2023-03-10T18:36:20.003Z,84.45
2023-03-10T18:38:47.819Z,84.98
2023-03-10T18:41:17.533Z,84.03
2023-03-10T18:43:44.733Z,84.11
2023-03-10T18:46:11.352Z,84.89
2023-03-10T18:48:37.980Z,84.83
2023-03-10T18:51:05.152Z,86.15
2023-03-10T18:53:34.717Z,86.19
2023-03-10T18:56:01.304Z,86.60
2023-03-10T18:58:28.163Z,86.13
2023-03-10T19:00:54.928Z,86.95
2023-03-10T19:03:21.673Z,87.08
2023-03-10T19:05:54.867Z,87.17
2023-03-10T19:08:22.488Z,88.00
2023-03-10T19:10:57.900Z,87.64
2023-03-10T19:13:25.832Z,88.12
2023-03-10T19:15:52.550Z,87.80
2023-03-10T19:18:19.368Z,87.99
2023-03-10T19:20:46.568Z,88.93
2023-03-10T19:23:14.657Z,88.16
2023-03-10T19:25:41.460Z,87.88
2023-03-10T19:28:08.381Z,87.25
2023-03-10T19:30:35.126Z,85.72
2023-03-10T19:33:01.911Z,86.42
2023-03-10T19:35:28.624Z,84.43
2023-03-10T19:37:55.596Z,83.20
2023-03-10T19:40:23.027Z,82.22
2023-03-10T19:42:49.719Z,78.83
2023-03-10T19:45:18.166Z,78.35
2023-03-10T19:47:46.006Z,75.94
2023-03-10T19:50:15.898Z,75.39
2023-03-10T19:52:46.769Z,72.96
2023-03-10T19:55:19.866Z,72.38
2023-03-10T19:57:48.558Z,71.22
2023-03-10T20:00:18.857Z,69.46
2023-03-10T20:02:45.773Z,69.03
2023-03-10T20:05:14.380Z,69.19
2023-03-10T20:07:42.613Z,69.69
2023-03-10T20:10:10.631Z,69.37
2023-03-10T20:12:37.275Z,69.93
2023-03-10T20:15:05.273Z,68.80
2023-03-10T20:17:32.075Z,68.86
2023-03-10T20:19:58.675Z,69.52
2023-03-10T20:22:25.312Z,68.55
2023-03-10T20:24:52.036Z,68.94
2023-03-10T20:27:18.596Z,69.18
2023-03-10T20:29:45.192Z,68.77
2023-03-10T20:32:11.894Z,68.73
2023-03-10T20:34:41.192Z,69.92
2023-03-10T20:37:08.056Z,70.69
2023-03-10T20:39:34.797Z,69.69
2023-03-10T20:42:01.626Z,69.53
2023-03-10T20:44:28.359Z,69.91
2023-03-10T20:46:55.041Z,69.55
2023-03-10T20:49:21.602Z,69.72
2023-03-10T20:51:48.233Z,68.80
2023-03-10T20:54:15.144Z,69.02
2023-03-10T20:56:41.776Z,68.57
2023-03-10T20:59:08.361Z,68.69
2023-03-10T21:01:39.703Z,68.15
2023-03-10T21:04:06.550Z,67.29
2023-03-10T21:06:33.327Z,68.46
2023-03-10T21:09:05.715Z,67.59
2023-03-10T21:11:35.747Z,68.28
2023-03-10T21:14:02.518Z,67.11
2023-03-10T21:16:29.259Z,66.88
2023-03-10T21:18:56.024Z,67.32
2023-03-10T21:21:22.685Z,66.80
2023-03-10T21:23:49.668Z,66.71
2023-03-10T21:26:19.307Z,66.74
2023-03-10T21:28:46.170Z,66.52
2023-03-10T21:31:13.930Z,65.89
2023-03-10T21:33:41.846Z,66.18
2023-03-10T21:36:13.860Z,65.69
2023-03-10T21:38:41.098Z,66.22
2023-03-10T21:41:08.880Z,65.90
2023-03-10T21:43:35.586Z,66.59
2023-03-10T21:46:02.288Z,66.52
2023-03-10T21:48:28.923Z,66.68
2023-03-10T21:50:55.549Z,66.63
2023-03-10T21:53:22.313Z,66.61
2023-03-10T21:55:48.971Z,67.28
2023-03-10T21:58:15.635Z,67.51
2023-03-10T22:00:42.772Z,66.14
2023-03-10T22:03:09.427Z,66.86
2023-03-10T22:05:36.297Z,66.30
2023-03-10T22:08:02.941Z,67.43
2023-03-10T22:10:29.579Z,67.96
2023-03-10T22:12:56.718Z,67.23
2023-03-10T22:15:25.878Z,68.76
2023-03-10T22:17:54.012Z,68.45
2023-03-10T22:20:24.301Z,66.91
2023-03-10T22:22:51.711Z,67.45
2023-03-10T22:25:19.135Z,67.24
2023-03-10T22:27:51.167Z,67.61
2023-03-10T22:30:22.300Z,66.86
2023-03-10T22:32:49.051Z,66.84
2023-03-10T22:35:16.774Z,67.30
2023-03-10T22:37:44.040Z,67.20
2023-03-10T22:40:16.273Z,67.44
2023-03-10T22:42:44.248Z,67.68
2023-03-10T22:45:21.102Z,67.66
2023-03-10T22:47:48.556Z,67.73
2023-03-10T22:50:25.169Z,67.79
2023-03-10T22:52:52.217Z,66.56
2023-03-10T22:55:23.515Z,66.20
2023-03-10T22:57:51.102Z,66.77
2023-03-10T23:00:20.953Z,66.44
2023-03-10T23:02:49.033Z,65.60
2023-03-10T23:05:16.739Z,66.24
2023-03-10T23:07:44.417Z,65.04
2023-03-10T23:10:20.234Z,64.66
2023-03-10T23:12:47.202Z,64.62
2023-03-10T23:15:25.279Z,64.10
2023-03-10T23:17:53.905Z,63.49
2023-03-10T23:20:22.044Z,63.87
2023-03-10T23:22:48.671Z,63.29
2023-03-10T23:25:28.727Z,66.33
2023-03-10T23:27:56.010Z,69.98
2023-03-10T23:30:23.525Z,79.16
2023-03-10T23:32:51.313Z,86.52
2023-03-10T23:35:21.636Z,87.79
2023-03-10T23:37:48.327Z,83.89
2023-03-10T23:40:18.036Z,80.90
2023-03-10T23:42:45.396Z,79.48
2023-03-10T23:45:14.844Z,77.79
2023-03-10T23:47:41.960Z,75.06
2023-03-10T23:50:11.558Z,78.97
2023-03-10T23:52:38.240Z,81.03
2023-03-10T23:55:05.562Z,80.32
2023-03-10T23:57:32.270Z,80.75
2023-03-10T23:59:59.168Z,81.33
